createdAt,value
2022-09-07T00:08:16.196Z,2.85
2022-09-07T00:18:24.413Z,2.74
2022-09-07T00:28:32.398Z,3.19
2022-09-07T00:38:40.337Z,4.31
2022-09-07T00:48:48.487Z,5.74
2022-09-07T00:58:56.438Z,6.57
2022-09-07T01:09:04.551Z,6.54
2022-09-07T01:19:12.613Z,5.97
2022-09-07T01:29:20.725Z,5.96
2022-09-07T01:39:28.795Z,5.77
2022-09-07T01:49:36.789Z,5.06
2022-09-07T01:59:44.879Z,4.83
2022-09-07T02:09:53.071Z,4.78
2022-09-07T02:20:01.119Z,4.57
2022-09-07T02:30:09.250Z,4.72
2022-09-07T02:40:17.333Z,5.11
2022-09-07T02:50:25.330Z,5.01
2022-09-07T03:00:33.447Z,4.81
2022-09-07T03:10:41.606Z,4.58
2022-09-07T03:20:49.682Z,4.7
2022-09-07T03:30:57.796Z,5.2
2022-09-07T03:41:05.864Z,5.9
2022-09-07T03:51:13.735Z,5.5
2022-09-07T04:01:21.792Z,4.4
2022-09-07T04:11:30.007Z,4.6
2022-09-07T04:21:38.041Z,4.66
2022-09-07T04:31:46.111Z,4.21
2022-09-07T04:41:54.113Z,5.3
2022-09-07T04:52:02.177Z,5.45
2022-09-07T05:02:10.226Z,10.06
2022-09-07T05:12:18.389Z,5.02
2022-09-07T05:22:26.470Z,7.29
2022-09-07T05:32:34.500Z,8.05
2022-09-07T05:42:42.453Z,10.2
2022-09-07T05:52:50.452Z,9.42
2022-09-07T06:02:58.718Z,11.19
2022-09-07T06:14:00.675Z,7.84
2022-09-07T06:23:08.004Z,7.15
2022-09-07T06:33:19.631Z,6.46
2022-09-07T06:43:24.777Z,6.17
2022-09-07T07:03:41.088Z,6.61
2022-09-07T07:13:49.075Z,5.28
2022-09-07T07:23:57.084Z,7.67
2022-09-07T07:34:04.920Z,6.02
2022-09-07T07:44:12.693Z,6.41
2022-09-07T07:54:20.670Z,6.99
2022-09-07T08:04:28.478Z,5.31
2022-09-07T08:24:39.655Z,6.16
2022-09-07T08:44:50.901Z,7.08
2022-09-07T09:05:17.678Z,6.07
2022-09-07T09:25:12.043Z,4.42
2022-09-07T09:35:20.902Z,3.25
2022-09-07T09:46:11.719Z,3.45
2022-09-07T09:55:38.202Z,3.46
2022-09-07T10:05:48.200Z,3.48
2022-09-07T10:15:46.215Z,3.11
2022-09-07T10:25:55.144Z,3.37
2022-09-07T10:36:04.054Z,3.12
2022-09-07T10:46:13.085Z,4.06
2022-09-07T10:56:22.145Z,3.28
2022-09-07T11:06:31.024Z,3.43
2022-09-07T11:16:51.662Z,3.57
2022-09-07T11:26:47.399Z,3.2
2022-09-07T11:36:56.372Z,3.29
2022-09-07T11:47:05.339Z,3.42
2022-09-07T11:57:14.208Z,3.42
2022-09-07T12:07:23.120Z,3.48
2022-09-07T12:17:31.920Z,2.97
2022-09-07T12:27:40.974Z,3.42
2022-09-07T12:37:49.870Z,3.22
2022-09-07T12:47:58.747Z,3.24
2022-09-07T12:58:07.670Z,3.21
2022-09-07T13:08:16.814Z,2.72
2022-09-07T13:18:31.370Z,3.11
2022-09-07T13:28:32.029Z,3.33
2022-09-07T13:38:32.759Z,3.67
2022-09-07T13:48:38.331Z,3.33
2022-09-07T13:58:38.462Z,2.88
2022-09-07T14:08:39.865Z,2.76
2022-09-07T14:18:47.012Z,2.42
2022-09-07T14:28:56.003Z,2.81
2022-09-07T14:39:04.354Z,2.72
2022-09-07T14:49:12.444Z,2.41
2022-09-07T14:59:21.474Z,2.47
2022-09-07T15:09:30.585Z,2.46
2022-09-07T15:19:39.559Z,2.93
2022-09-07T15:29:48.540Z,2.38
2022-09-07T15:39:57.575Z,2.63
2022-09-07T15:50:06.837Z,2.75
2022-09-07T16:00:15.739Z,2.45
2022-09-07T16:10:24.677Z,2.33
2022-09-07T16:20:32.993Z,2.76
2022-09-07T16:30:41.475Z,2.54
2022-09-07T16:40:53.348Z,2.6
2022-09-07T16:50:55.401Z,2.64
2022-09-07T17:01:02.952Z,2.52
2022-09-07T17:11:01.971Z,2.63
2022-09-07T17:21:12.497Z,2.94
2022-09-07T17:31:11.649Z,2.92
2022-09-07T17:41:21.540Z,3.19
2022-09-07T17:51:21.626Z,2.99
2022-09-07T18:01:30.890Z,2.9
2022-09-07T18:11:45.695Z,3.25
2022-09-07T18:21:41.264Z,3.36
2022-09-07T18:31:47.091Z,3.09
2022-09-07T18:41:49.505Z,2.9
2022-09-07T19:02:44.519Z,3.3
2022-09-07T19:12:06.871Z,3.1
2022-09-07T19:22:10.891Z,3.44
2022-09-07T19:32:09.647Z,2.89
2022-09-07T19:42:18.621Z,5.09
2022-09-07T19:52:27.535Z,6.22
2022-09-07T20:12:38.857Z,5.71
2022-09-07T20:22:47.733Z,4.92
2022-09-07T20:32:56.596Z,5.49
2022-09-07T20:43:05.814Z,4.74
2022-09-07T20:53:14.668Z,4.12
2022-09-07T21:03:23.614Z,4.8
2022-09-07T21:13:33.486Z,4.31
2022-09-07T21:23:48.645Z,4.05
2022-09-07T21:33:47.570Z,3.64
2022-09-07T21:43:56.530Z,3.63
2022-09-07T21:54:05.382Z,4.33
2022-09-07T22:04:14.235Z,4.43
2022-09-07T22:14:24.441Z,4.49
2022-09-07T22:24:32.262Z,4.42
2022-09-07T22:34:40.610Z,4.15
2022-09-07T22:44:49.665Z,4.32
2022-09-07T22:54:58.453Z,4.88
2022-09-07T23:05:07.454Z,5.91
2022-09-07T23:15:16.339Z,6.09
2022-09-07T23:25:26.895Z,6.11
2022-09-07T23:35:25.405Z,5.85
2022-09-07T23:45:34.334Z,5.75
2022-09-07T23:55:43.166Z,6.03
